Morley, United Kingdom
Current Conditions -  °F | °C
As of 8:20 PM on Wednesday 28 Jan 2015 (Local Time) from EGNM Reporting Station
Scattered Clouds Scattered Clouds  
Wind Chill: 21°   Ceiling: Unl
Heat Index: 34°   Visibility: 6mi
Dew Point: 30°   Wind: 24mph
Humidity: 87%   Direction: 260°W
Pressure: 29.29"   Gusts: 39mph
Location:  53.74°N, 1.6°W
Report Text: EGNM 282020Z 26021G34KT 9999 FEW008 SCT020CB 01/M01 Q0992
Loading
Personal Weather Stations






























Interactive Weather Map New forecast layout! Learn more

10-Day Weather Forecast

Advertisements
Track Severe Weather on mobile